Time;durP1;ratioP1;P1;durP2;ratioP2;P2;SDS_P1;SDS_P2;PMS_P1;PMS_P2;Temp;Humidity;BMP_temperature;BMP_pressure;BME280_temperature;BME280_humidity;BME280_pressure;Samples;Min_cycle;Max_cycle;Signal;HPM_P1;HPM_P2
2021/06/02 00:02:23;;;;;;;9.40;3.42;;;;;;;;;;5113469;28;20020;-65
2021/06/02 00:04:51;;;;;;;9.00;4.15;;;;;;;;;;5113039;28;20039;-67
2021/06/02 00:07:21;;;;;;;5.68;3.78;;;;;;;;;;5113474;28;20027;-66
2021/06/02 00:09:49;;;;;;;6.63;4.10;;;;;;;;;;5113544;28;20092;-66
2021/06/02 00:12:15;;;;;;;6.95;4.22;;;;;;;;;;5113516;28;20024;-67
2021/06/02 00:14:41;;;;;;;6.88;4.28;;;;;;;;;;5095188;28;20028;-66
2021/06/02 00:17:06;;;;;;;9.90;4.32;;;;;;;;;;5113406;28;20069;-66
2021/06/02 00:19:32;;;;;;;9.23;4.70;;;;;;;;;;5113494;28;20023;-66
2021/06/02 00:21:58;;;;;;;8.93;4.55;;;;;;;;;;5113355;28;20115;-66
2021/06/02 00:24:24;;;;;;;7.05;3.92;;;;;;;;;;5113408;28;20109;-66
2021/06/02 00:26:57;;;;;;;7.78;4.63;;;;;;;;;;5113599;28;20094;-66
2021/06/02 00:29:30;;;;;;;7.82;4.25;;;;;;;;;;5099281;28;20035;-66
2021/06/02 00:31:55;;;;;;;10.43;4.63;;;;;;;;;;5117342;28;20028;-66
2021/06/02 00:34:22;;;;;;;7.07;4.45;;;;;;;;;;5117539;28;20057;-66
2021/06/02 00:36:48;;;;;;;7.93;4.50;;;;;;;;;;5116995;28;20517;-67
2021/06/02 00:39:13;;;;;;;9.75;5.03;;;;;;;;;;5117472;28;20027;-66
2021/06/02 00:41:39;;;;;;;6.20;4.40;;;;;;;;;;5117171;28;20352;-66
2021/06/02 00:44:05;;;;;;;11.68;4.55;;;;;;;;;;5116934;28;20498;-66
2021/06/02 00:46:34;;;;;;;7.15;5.00;;;;;;;;;;5108636;28;20032;-66
2021/06/02 00:48:59;;;;;;;9.32;4.78;;;;;;;;;;5095667;28;20495;-66
2021/06/02 00:51:24;;;;;;;7.97;4.90;;;;;;;;;;5096632;28;20020;-66
2021/06/02 00:53:50;;;;;;;7.20;4.38;;;;;;;;;;5096604;28;20032;-66
2021/06/02 00:56:17;;;;;;;11.02;5.57;;;;;;;;;;5109548;28;20032;-66
2021/06/02 00:58:44;;;;;;;7.90;5.30;;;;;;;;;;5116670;28;20456;-66
2021/06/02 01:01:10;;;;;;;9.40;5.35;;;;;;;;;;5116572;28;20552;-66
2021/06/02 01:03:35;;;;;;;7.82;5.32;;;;;;;;;;5116870;28;20039;-66
2021/06/02 01:06:01;;;;;;;8.98;5.32;;;;;;;;;;5116953;28;20360;-66
2021/06/02 01:08:28;;;;;;;7.30;4.82;;;;;;;;;;5115917;28;20035;-65
2021/06/02 01:10:54;;;;;;;11.95;6.45;;;;;;;;;;5116704;28;20062;-66
2021/06/02 01:13:19;;;;;;;9.20;5.65;;;;;;;;;;5116949;28;20098;-66
2021/06/02 01:15:49;;;;;;;9.65;5.40;;;;;;;;;;5116478;28;20544;-66
2021/06/02 01:18:14;;;;;;;10.15;5.70;;;;;;;;;;5116667;28;20039;-66
2021/06/02 01:20:40;;;;;;;10.75;5.70;;;;;;;;;;5116421;28;20019;-66
2021/06/02 01:23:07;;;;;;;11.43;6.10;;;;;;;;;;5116615;28;20035;-66
2021/06/02 01:25:33;;;;;;;9.60;6.10;;;;;;;;;;5116433;28;20161;-66
2021/06/02 01:27:58;;;;;;;9.57;6.82;;;;;;;;;;5116329;28;20031;-66
2021/06/02 01:30:23;;;;;;;8.85;6.32;;;;;;;;;;5116463;28;20020;-66
2021/06/02 01:32:52;;;;;;;13.85;7.72;;;;;;;;;;5115823;28;20472;-66
2021/06/02 01:35:36;;;;;;;9.98;6.63;;;;;;;;;;5116349;28;20452;-65
2021/06/02 01:38:01;;;;;;;11.93;6.95;;;;;;;;;;5115666;28;20035;-66
2021/06/02 01:40:45;;;;;;;11.10;7.05;;;;;;;;;;5116390;28;20118;-65
2021/06/02 01:43:13;;;;;;;13.70;7.13;;;;;;;;;;5116107;28;20027;-66
2021/06/02 01:45:56;;;;;;;16.98;7.78;;;;;;;;;;5115934;28;20024;-66
2021/06/02 01:48:25;;;;;;;11.00;7.05;;;;;;;;;;5116183;28;20379;-66
2021/06/02 01:51:16;;;;;;;14.77;8.30;;;;;;;;;;5115890;28;20037;-66
2021/06/02 01:54:00;;;;;;;13.45;7.97;;;;;;;;;;5110336;28;20052;-66
2021/06/02 01:56:31;;;;;;;14.07;7.22;;;;;;;;;;5115873;28;20420;-66
2021/06/02 01:59:11;;;;;;;13.55;8.20;;;;;;;;;;5115525;28;20031;-66
2021/06/02 02:01:55;;;;;;;11.38;7.72;;;;;;;;;;5115257;28;20036;-66
2021/06/02 02:04:38;;;;;;;14.75;7.57;;;;;;;;;;5115598;28;20032;-66
2021/06/02 02:07:22;;;;;;;12.05;8.00;;;;;;;;;;5115464;28;20035;-66
2021/06/02 02:09:50;;;;;;;12.73;7.88;;;;;;;;;;5115340;28;20052;-66
2021/06/02 02:12:34;;;;;;;15.48;8.52;;;;;;;;;;5115455;28;20028;-66
2021/06/02 02:15:04;;;;;;;18.05;8.18;;;;;;;;;;5115416;28;20044;-66
2021/06/02 02:17:44;;;;;;;13.70;9.18;;;;;;;;;;5115398;28;20038;-66
2021/06/02 02:20:42;;;;;;;15.18;9.15;;;;;;;;;;5115549;28;20110;-66
2021/06/02 02:23:26;;;;;;;15.00;8.98;;;;;;;;;;5059015;28;20100;-66
2021/06/02 02:25:57;;;;;;;13.50;8.73;;;;;;;;;;5115051;28;20027;-66
2021/06/02 02:28:28;;;;;;;21.40;9.10;;;;;;;;;;5115022;28;20476;-66
2021/06/02 02:30:56;;;;;;;14.77;8.85;;;;;;;;;;5115066;28;20042;-66
2021/06/02 02:33:26;;;;;;;16.58;9.32;;;;;;;;;;5115167;28;20034;-66
2021/06/02 02:35:51;;;;;;;12.77;9.07;;;;;;;;;;5114869;28;20050;-66
2021/06/02 02:38:35;;;;;;;15.00;9.55;;;;;;;;;;5115182;28;20452;-66
2021/06/02 02:41:19;;;;;;;23.45;10.07;;;;;;;;;;5114809;28;20428;-66
2021/06/02 02:43:50;;;;;;;17.20;10.00;;;;;;;;;;5114859;28;20023;-66
2021/06/02 02:46:20;;;;;;;14.93;9.70;;;;;;;;;;5114576;28;20460;-66
2021/06/02 02:48:49;;;;;;;19.80;10.63;;;;;;;;;;5114827;28;20635;-66
2021/06/02 02:51:22;;;;;;;17.58;10.00;;;;;;;;;;5113578;28;20468;-66
2021/06/02 02:53:57;;;;;;;18.50;11.15;;;;;;;;;;5114579;28;20036;-66
2021/06/02 02:56:25;;;;;;;23.02;11.73;;;;;;;;;;5114641;28;20027;-66
2021/06/02 02:59:04;;;;;;;19.75;10.52;;;;;;;;;;5114615;28;20035;-66
2021/06/02 03:01:38;;;;;;;19.23;11.40;;;;;;;;;;5114591;28;20035;-66
2021/06/02 03:04:06;;;;;;;18.10;11.68;;;;;;;;;;5114627;28;20063;-66
2021/06/02 03:06:34;;;;;;;17.90;11.30;;;;;;;;;;5099380;28;20082;-67
2021/06/02 03:09:12;;;;;;;18.05;10.82;;;;;;;;;;5094165;28;20467;-66
2021/06/02 03:12:00;;;;;;;24.50;11.25;;;;;;;;;;5093888;28;20097;-65
2021/06/02 03:14:35;;;;;;;19.23;11.77;;;;;;;;;;5080083;28;20059;-66
2021/06/02 03:17:09;;;;;;;18.60;11.73;;;;;;;;;;5075675;28;20431;-66
2021/06/02 03:19:38;;;;;;;21.10;11.70;;;;;;;;;;5093889;28;20043;-65
2021/06/02 03:22:04;;;;;;;25.55;12.65;;;;;;;;;;5093676;28;20035;-66
2021/06/02 03:24:48;;;;;;;22.25;12.35;;;;;;;;;;5093918;28;20115;-66
2021/06/02 03:27:19;;;;;;;22.08;12.07;;;;;;;;;;5093655;28;20102;-67
2021/06/02 03:29:51;;;;;;;24.70;12.75;;;;;;;;;;5093717;28;20035;-66
2021/06/02 03:32:35;;;;;;;21.52;11.45;;;;;;;;;;5093625;28;20043;-65
2021/06/02 03:35:03;;;;;;;18.98;11.95;;;;;;;;;;5093683;28;20054;-66
2021/06/02 03:37:34;;;;;;;22.05;12.38;;;;;;;;;;5093546;28;20035;-66
2021/06/02 03:39:59;;;;;;;24.00;12.73;;;;;;;;;;5093619;28;20062;-65
2021/06/02 03:42:25;;;;;;;30.10;13.68;;;;;;;;;;5093510;28;20024;-65
2021/06/02 03:44:59;;;;;;;21.25;11.60;;;;;;;;;;5093160;28;20027;-65
2021/06/02 03:47:33;;;;;;;28.97;14.93;;;;;;;;;;5093389;28;20039;-65
2021/06/02 03:50:17;;;;;;;22.88;13.07;;;;;;;;;;5091398;28;20659;-65
2021/06/02 03:52:48;;;;;;;19.73;11.75;;;;;;;;;;5113555;28;20032;-65
2021/06/02 03:55:24;;;;;;;27.30;12.95;;;;;;;;;;5113603;28;20040;-65
2021/06/02 03:57:58;;;;;;;28.60;13.63;;;;;;;;;;5113495;28;20032;-65
2021/06/02 04:00:27;;;;;;;20.17;11.73;;;;;;;;;;5113669;28;20062;-64
2021/06/02 04:02:52;;;;;;;21.48;13.27;;;;;;;;;;5113227;28;20056;-65
2021/06/02 04:05:17;;;;;;;26.35;13.40;;;;;;;;;;5113477;28;20012;-64
2021/06/02 04:07:54;;;;;;;24.02;12.25;;;;;;;;;;5113429;28;20024;-64
2021/06/02 04:10:38;;;;;;;24.20;13.35;;;;;;;;;;5113352;28;20087;-64
2021/06/02 04:13:09;;;;;;;21.48;12.45;;;;;;;;;;5113332;28;20042;-64
2021/06/02 04:15:36;;;;;;;25.40;13.55;;;;;;;;;;5113625;28;20043;-64
2021/06/02 04:18:01;;;;;;;21.13;12.38;;;;;;;;;;5113396;28;20018;-64
2021/06/02 04:20:27;;;;;;;27.77;13.73;;;;;;;;;;5113553;28;20442;-64
2021/06/02 04:22:54;;;;;;;30.42;14.13;;;;;;;;;;5113356;28;20547;-64
2021/06/02 04:25:20;;;;;;;22.00;11.52;;;;;;;;;;5113235;28;20372;-64
2021/06/02 04:27:46;;;;;;;25.92;12.27;;;;;;;;;;5113278;28;20456;-64
2021/06/02 04:30:13;;;;;;;25.25;12.98;;;;;;;;;;5113467;28;20038;-65
2021/06/02 04:32:40;;;;;;;22.73;11.98;;;;;;;;;;5113583;28;20023;-65
2021/06/02 04:35:08;;;;;;;22.08;12.18;;;;;;;;;;5113356;28;20043;-65
2021/06/02 04:37:34;;;;;;;22.25;11.93;;;;;;;;;;5112962;28;20468;-65
2021/06/02 04:40:00;;;;;;;20.33;11.23;;;;;;;;;;5113368;28;20055;-65
2021/06/02 04:42:26;;;;;;;19.75;12.43;;;;;;;;;;5112928;28;20030;-65
2021/06/02 04:44:52;;;;;;;19.15;10.70;;;;;;;;;;5113253;28;20106;-65
2021/06/02 04:47:17;;;;;;;21.05;10.07;;;;;;;;;;5113235;28;20074;-65
2021/06/02 04:49:45;;;;;;;16.38;9.05;;;;;;;;;;5113120;28;20429;-65
2021/06/02 04:52:25;;;;;;;13.45;7.40;;;;;;;;;;5112833;28;20036;-65
2021/06/02 04:55:00;;;;;;;11.95;7.18;;;;;;;;;;5112679;28;20471;-65
2021/06/02 04:57:43;;;;;;;8.70;6.07;;;;;;;;;;5112970;28;20032;-66
2021/06/02 05:00:18;;;;;;;10.25;5.65;;;;;;;;;;5112372;28;20039;-66
2021/06/02 05:03:01;;;;;;;10.27;4.97;;;;;;;;;;5111987;28;20118;-66
2021/06/02 05:06:05;;;;;;;12.93;5.32;;;;;;;;;;5112967;28;20068;-66
2021/06/02 05:08:50;;;;;;;10.88;4.93;;;;;;;;;;5010329;28;20048;-66
2021/06/02 05:11:36;;;;;;;11.85;4.85;;;;;;;;;;5010204;28;20065;-66
2021/06/02 05:14:20;;;;;;;8.70;4.30;;;;;;;;;;5087551;28;20048;-66
2021/06/02 05:17:13;;;;;;;5.65;4.20;;;;;;;;;;5116449;28;20059;-65
2021/06/02 05:20:00;;;;;;;6.85;4.40;;;;;;;;;;5116660;28;20067;-66
2021/06/02 05:22:44;;;;;;;6.43;3.83;;;;;;;;;;5116406;28;20038;-66
2021/06/02 05:25:28;;;;;;;6.18;4.28;;;;;;;;;;5116168;28;20521;-66
2021/06/02 05:28:14;;;;;;;5.40;3.88;;;;;;;;;;5116163;28;20036;-66
2021/06/02 05:30:39;;;;;;;7.28;3.53;;;;;;;;;;5064060;28;20687;-67
2021/06/02 05:33:23;;;;;;;7.22;4.78;;;;;;;;;;5115844;28;20039;-66
2021/06/02 05:36:23;;;;;;;5.72;4.13;;;;;;;;;;5115925;28;20043;-67
2021/06/02 05:38:49;;;;;;;5.68;3.78;;;;;;;;;;5013335;28;20033;-68
2021/06/02 05:41:33;;;;;;;4.63;3.60;;;;;;;;;;5094411;28;20148;-64
2021/06/02 05:44:01;;;;;;;8.30;3.50;;;;;;;;;;5115981;28;20024;-65
2021/06/02 05:46:29;;;;;;;4.82;3.40;;;;;;;;;;5115719;28;20516;-65
2021/06/02 05:48:55;;;;;;;4.88;3.90;;;;;;;;;;5116051;28;20016;-66
2021/06/02 05:51:39;;;;;;;6.22;3.90;;;;;;;;;;5115975;28;20026;-65
2021/06/02 05:54:10;;;;;;;5.32;3.22;;;;;;;;;;5115786;28;20088;-66
2021/06/02 05:56:50;;;;;;;8.23;7.38;;;;;;;;;;5115674;28;20035;-65
2021/06/02 05:59:34;;;;;;;4.43;2.80;;;;;;;;;;5115927;28;20111;-65
2021/06/02 06:02:18;;;;;;;5.68;2.90;;;;;;;;;;5115668;28;20036;-66
2021/06/02 06:05:06;;;;;;;2.92;2.50;;;;;;;;;;5115433;28;20450;-65
2021/06/02 06:07:49;;;;;;;5.20;3.22;;;;;;;;;;5104184;28;20435;-65
2021/06/02 06:10:21;;;;;;;7.00;3.58;;;;;;;;;;5113989;28;20051;-66
2021/06/02 06:12:47;;;;;;;5.60;2.75;;;;;;;;;;5114979;28;20047;-65
2021/06/02 06:15:21;;;;;;;6.33;3.10;;;;;;;;;;5115522;28;20040;-66
2021/06/02 06:17:49;;;;;;;5.82;3.15;;;;;;;;;;5115387;28;20350;-65
2021/06/02 06:20:33;;;;;;;6.50;3.40;;;;;;;;;;5115545;28;20438;-66
2021/06/02 06:23:12;;;;;;;5.45;2.97;;;;;;;;;;5115092;28;20019;-65
2021/06/02 06:25:39;;;;;;;3.95;2.92;;;;;;;;;;5115330;28;20063;-65
2021/06/02 06:28:05;;;;;;;8.52;2.97;;;;;;;;;;5115147;28;20039;-66
2021/06/02 06:30:34;;;;;;;3.97;3.37;;;;;;;;;;5115279;28;20019;-66
2021/06/02 06:33:01;;;;;;;5.05;3.35;;;;;;;;;;5114934;28;20249;-66
2021/06/02 06:35:28;;;;;;;6.63;2.83;;;;;;;;;;5115274;28;20077;-66
2021/06/02 06:37:57;;;;;;;5.65;2.80;;;;;;;;;;5114923;28;20106;-67
2021/06/02 06:40:22;;;;;;;8.52;2.97;;;;;;;;;;5115133;28;20094;-66
2021/06/02 06:42:51;;;;;;;6.65;3.00;;;;;;;;;;5114480;28;20052;-67
2021/06/02 06:45:18;;;;;;;4.68;2.80;;;;;;;;;;5115020;28;20028;-67
2021/06/02 06:47:45;;;;;;;5.00;3.00;;;;;;;;;;5114810;28;20027;-66
2021/06/02 06:50:11;;;;;;;6.22;3.08;;;;;;;;;;5114974;28;20084;-67
2021/06/02 06:52:37;;;;;;;7.95;3.60;;;;;;;;;;5114630;28;20024;-67
2021/06/02 06:55:05;;;;;;;6.43;3.15;;;;;;;;;;5114637;28;20035;-67
2021/06/02 06:57:31;;;;;;;12.15;5.28;;;;;;;;;;5114198;28;20088;-66
2021/06/02 06:59:56;;;;;;;9.27;5.97;;;;;;;;;;5107104;28;20023;-65
2021/06/02 07:02:22;;;;;;;6.40;3.97;;;;;;;;;;5113954;28;20031;-67
2021/06/02 07:04:48;;;;;;;6.43;3.72;;;;;;;;;;5114048;28;20497;-67
2021/06/02 07:07:13;;;;;;;5.80;3.30;;;;;;;;;;5094117;28;20020;-66
2021/06/02 07:09:39;;;;;;;9.52;4.35;;;;;;;;;;5093840;28;20074;-67
2021/06/02 07:12:04;;;;;;;5.65;3.65;;;;;;;;;;5101582;28;20042;-67
2021/06/02 07:14:30;;;;;;;9.98;3.38;;;;;;;;;;5114421;28;20114;-67
2021/06/02 07:17:03;;;;;;;8.88;4.13;;;;;;;;;;5114264;28;20470;-67
2021/06/02 07:19:29;;;;;;;6.00;3.60;;;;;;;;;;5114240;28;20067;-65
2021/06/02 07:21:56;;;;;;;8.45;3.90;;;;;;;;;;5113691;28;20047;-66
2021/06/02 07:24:22;;;;;;;7.20;4.05;;;;;;;;;;5114336;28;20020;-66
2021/06/02 07:26:48;;;;;;;11.95;4.07;;;;;;;;;;5114002;28;20066;-66
2021/06/02 07:29:13;;;;;;;6.30;4.13;;;;;;;;;;5114048;28;20060;-67
2021/06/02 07:31:39;;;;;;;8.80;4.15;;;;;;;;;;5113835;28;20248;-67
2021/06/02 07:34:05;;;;;;;6.40;3.42;;;;;;;;;;5113980;28;20044;-66
2021/06/02 07:36:31;;;;;;;5.55;3.95;;;;;;;;;;5113542;28;20027;-67
2021/06/02 07:38:56;;;;;;;9.38;4.32;;;;;;;;;;5113612;28;20015;-67
2021/06/02 07:41:22;;;;;;;5.93;3.78;;;;;;;;;;5113641;28;20032;-67
2021/06/02 07:43:47;;;;;;;7.07;3.80;;;;;;;;;;5113890;28;20028;-67
2021/06/02 07:46:12;;;;;;;8.10;4.10;;;;;;;;;;5113961;28;20566;-67
2021/06/02 07:48:37;;;;;;;9.82;3.50;;;;;;;;;;5113995;28;20490;-67
2021/06/02 07:51:03;;;;;;;6.55;3.67;;;;;;;;;;5113732;28;20443;-66
2021/06/02 07:53:28;;;;;;;6.97;4.03;;;;;;;;;;5103791;28;20070;-66
2021/06/02 07:55:54;;;;;;;8.68;4.20;;;;;;;;;;5112874;28;20024;-66
2021/06/02 07:58:20;;;;;;;7.90;4.60;;;;;;;;;;5112315;28;20023;-67
2021/06/02 08:00:45;;;;;;;7.15;4.07;;;;;;;;;;5111615;28;20027;-65
2021/06/02 08:03:10;;;;;;;4.93;3.53;;;;;;;;;;5112311;28;20038;-66
2021/06/02 08:05:36;;;;;;;5.50;4.28;;;;;;;;;;5112607;28;20054;-66
2021/06/02 08:08:01;;;;;;;10.10;4.20;;;;;;;;;;5112309;28;20039;-67
2021/06/02 08:10:26;;;;;;;7.20;4.80;;;;;;;;;;5111787;28;20058;-67
2021/06/02 08:12:52;;;;;;;6.45;4.07;;;;;;;;;;5111349;28;20022;-66
2021/06/02 08:15:17;;;;;;;6.47;3.65;;;;;;;;;;5112267;28;20020;-66
2021/06/02 08:17:43;;;;;;;7.68;4.25;;;;;;;;;;5112736;28;20036;-66
2021/06/02 08:20:09;;;;;;;8.27;4.03;;;;;;;;;;5112682;28;20031;-67
2021/06/02 08:22:34;;;;;;;9.73;4.35;;;;;;;;;;5111673;28;20054;-66
2021/06/02 08:25:10;;;;;;;8.57;4.15;;;;;;;;;;5112336;28;20078;-67
2021/06/02 08:27:36;;;;;;;7.90;4.20;;;;;;;;;;5112499;28;20020;-66
2021/06/02 08:30:01;;;;;;;6.50;4.13;;;;;;;;;;5094124;28;20035;-67
2021/06/02 08:32:27;;;;;;;6.30;4.10;;;;;;;;;;5090922;28;20028;-66
2021/06/02 08:34:53;;;;;;;7.18;4.50;;;;;;;;;;5091934;28;20388;-67
2021/06/02 08:37:19;;;;;;;7.65;4.18;;;;;;;;;;5092002;28;20472;-66
2021/06/02 08:39:44;;;;;;;8.15;4.30;;;;;;;;;;5091713;28;20012;-66
2021/06/02 08:42:10;;;;;;;7.15;3.92;;;;;;;;;;5091946;28;20051;-67
2021/06/02 08:44:36;;;;;;;7.82;3.83;;;;;;;;;;5092279;28;20044;-67
2021/06/02 08:47:02;;;;;;;8.85;4.00;;;;;;;;;;5093406;28;20416;-67
2021/06/02 08:49:27;;;;;;;9.32;4.10;;;;;;;;;;5095462;28;20380;-66
2021/06/02 08:51:53;;;;;;;6.18;3.50;;;;;;;;;;5096322;28;20070;-67
2021/06/02 08:54:19;;;;;;;10.43;3.70;;;;;;;;;;5096112;28;20464;-67
2021/06/02 08:56:44;;;;;;;5.68;3.95;;;;;;;;;;5078436;28;20116;-67
2021/06/02 08:59:10;;;;;;;5.88;3.35;;;;;;;;;;5096616;28;20032;-67
2021/06/02 09:01:36;;;;;;;11.32;3.92;;;;;;;;;;5096317;28;20020;-66
2021/06/02 09:04:08;;;;;;;7.28;3.85;;;;;;;;;;5091656;28;20032;-67
2021/06/02 09:06:35;;;;;;;7.82;3.85;;;;;;;;;;5095358;28;20034;-66
2021/06/02 09:09:03;;;;;;;5.97;3.75;;;;;;;;;;5095382;28;20027;-67
2021/06/02 09:11:29;;;;;;;9.25;3.67;;;;;;;;;;5094946;28;20047;-68
2021/06/02 09:13:54;;;;;;;7.40;3.88;;;;;;;;;;5101564;28;20039;-67
2021/06/02 09:16:23;;;;;;;6.75;3.80;;;;;;;;;;5113242;28;20798;-67
2021/06/02 09:18:58;;;;;;;8.23;3.97;;;;;;;;;;5113615;28;20027;-68
2021/06/02 09:21:23;;;;;;;8.10;3.70;;;;;;;;;;5113792;28;20063;-68
2021/06/02 09:23:49;;;;;;;7.13;3.78;;;;;;;;;;5112674;28;20451;-67
2021/06/02 09:26:21;;;;;;;8.63;3.72;;;;;;;;;;5113545;28;20039;-67
2021/06/02 09:28:58;;;;;;;4.93;3.65;;;;;;;;;;5115261;28;20080;-68
2021/06/02 09:31:33;;;;;;;13.00;3.65;;;;;;;;;;5107766;28;20019;-68
2021/06/02 09:34:14;;;;;;;8.13;3.20;;;;;;;;;;5111335;28;20494;-66
2021/06/02 09:36:40;;;;;;;6.57;3.13;;;;;;;;;;5112564;28;20452;-67
2021/06/02 09:39:07;;;;;;;6.65;3.25;;;;;;;;;;5112915;28;20069;-68
2021/06/02 09:41:37;;;;;;;8.70;3.40;;;;;;;;;;5112922;28;20045;-67
2021/06/02 09:44:16;;;;;;;5.35;3.33;;;;;;;;;;5112309;28;20038;-67
2021/06/02 09:46:58;;;;;;;6.10;2.90;;;;;;;;;;5112758;28;20489;-67
2021/06/02 09:49:23;;;;;;;4.47;3.13;;;;;;;;;;5100281;28;20020;-65
2021/06/02 09:51:49;;;;;;;7.03;3.00;;;;;;;;;;5092688;28;20028;-67
2021/06/02 09:54:14;;;;;;;7.07;3.13;;;;;;;;;;5091609;28;20815;-66
2021/06/02 09:56:43;;;;;;;5.23;3.07;;;;;;;;;;5092055;28;20058;-67
2021/06/02 09:59:10;;;;;;;4.53;2.60;;;;;;;;;;5090879;28;20276;-67
2021/06/02 10:01:52;;;;;;;7.82;3.30;;;;;;;;;;5091240;28;20035;-66
2021/06/02 10:04:18;;;;;;;4.22;2.80;;;;;;;;;;5091724;28;20097;-67
2021/06/02 10:06:43;;;;;;;6.40;3.30;;;;;;;;;;5107923;28;20106;-67
2021/06/02 10:09:09;;;;;;;8.07;3.30;;;;;;;;;;5112098;28;20110;-67
2021/06/02 10:11:35;;;;;;;6.78;2.92;;;;;;;;;;5112313;28;20205;-66
2021/06/02 10:14:01;;;;;;;6.88;3.28;;;;;;;;;;5112401;28;20042;-66
2021/06/02 10:16:45;;;;;;;7.05;3.38;;;;;;;;;;5112124;28;20070;-67
2021/06/02 10:19:11;;;;;;;12.23;2.95;;;;;;;;;;5112096;28;20034;-66
2021/06/02 10:21:46;;;;;;;8.45;3.60;;;;;;;;;;5105314;28;20035;-66
2021/06/02 10:24:11;;;;;;;9.07;3.47;;;;;;;;;;5111451;28;20048;-64
2021/06/02 10:26:40;;;;;;;5.80;3.20;;;;;;;;;;5112024;28;20085;-64
2021/06/02 10:29:06;;;;;;;8.55;3.28;;;;;;;;;;5111801;28;20031;-65
2021/06/02 10:31:32;;;;;;;5.32;3.85;;;;;;;;;;5111734;28;20028;-66
2021/06/02 10:33:57;;;;;;;10.38;3.10;;;;;;;;;;5111364;28;20040;-66
2021/06/02 10:36:24;;;;;;;7.97;2.88;;;;;;;;;;5111309;28;20106;-65
2021/06/02 10:38:51;;;;;;;4.00;2.40;;;;;;;;;;5110742;28;20027;-65
2021/06/02 10:41:25;;;;;;;4.80;2.78;;;;;;;;;;5111841;28;20111;-67
2021/06/02 10:43:50;;;;;;;;;;;;;;;;;;5111158;28;20043;-66
2021/06/02 10:46:19;;;;;;;4.23;2.40;;;;;;;;;;5111733;28;19919;-68
2021/06/02 10:48:54;;;;;;;6.80;2.72;;;;;;;;;;5111445;28;20271;-68
2021/06/02 10:51:24;;;;;;;4.82;2.30;;;;;;;;;;5111320;28;20433;-68
2021/06/02 10:54:22;;;;;;;6.55;2.47;;;;;;;;;;5090935;28;20040;-68
2021/06/02 10:56:59;;;;;;;5.65;2.20;;;;;;;;;;5038580;28;20411;-67
2021/06/02 10:59:35;;;;;;;6.15;2.72;;;;;;;;;;5095761;28;20035;-67
2021/06/02 11:02:04;;;;;;;3.20;2.20;;;;;;;;;;5088502;28;20488;-68
2021/06/02 11:04:30;;;;;;;4.78;2.40;;;;;;;;;;5088277;28;20039;-66
2021/06/02 11:07:13;;;;;;;6.65;2.45;;;;;;;;;;5077436;28;20050;-68
2021/06/02 11:09:51;;;;;;;10.10;2.45;;;;;;;;;;5101112;28;20039;-67
2021/06/02 11:12:16;;;;;;;7.55;2.30;;;;;;;;;;5100416;28;20468;-67
2021/06/02 11:14:41;;;;;;;4.70;2.38;;;;;;;;;;5101090;28;20103;-67
2021/06/02 11:17:11;;;;;;;5.25;2.53;;;;;;;;;;5098803;28;20061;-67
2021/06/02 11:19:39;;;;;;;7.35;2.30;;;;;;;;;;5101181;28;20020;-68
2021/06/02 11:22:06;;;;;;;3.17;1.92;;;;;;;;;;5098228;28;20063;-67
2021/06/02 11:24:34;;;;;;;4.20;2.70;;;;;;;;;;5101163;28;20039;-67
2021/06/02 11:27:12;;;;;;;6.53;2.15;;;;;;;;;;5098397;28;20024;-67
2021/06/02 11:29:37;;;;;;;5.05;2.50;;;;;;;;;;5099839;28;20040;-67
2021/06/02 11:32:16;;;;;;;9.77;2.65;;;;;;;;;;5099892;28;20027;-68
2021/06/02 11:34:42;;;;;;;3.30;2.13;;;;;;;;;;5082381;28;20432;-67
2021/06/02 11:37:08;;;;;;;7.15;2.25;;;;;;;;;;5098269;28;20104;-67
2021/06/02 11:39:36;;;;;;;5.70;2.60;;;;;;;;;;5109516;28;20443;-68
2021/06/02 11:42:02;;;;;;;8.93;3.10;;;;;;;;;;5109992;28;20085;-68
2021/06/02 11:44:28;;;;;;;3.70;2.60;;;;;;;;;;5110308;28;20425;-68
2021/06/02 11:46:53;;;;;;;8.40;2.60;;;;;;;;;;5110043;28;20028;-66
2021/06/02 11:49:29;;;;;;;7.03;2.55;;;;;;;;;;5098596;28;20028;-67
2021/06/02 11:52:05;;;;;;;8.23;3.38;;;;;;;;;;5098807;28;20076;-66
2021/06/02 11:54:50;;;;;;;6.13;2.70;;;;;;;;;;5105329;28;20080;-67
2021/06/02 11:57:25;;;;;;;4.80;2.67;;;;;;;;;;5094359;28;20237;-67
2021/06/02 11:59:51;;;;;;;3.92;2.30;;;;;;;;;;5089045;28;20089;-67
2021/06/02 12:02:16;;;;;;;8.38;2.67;;;;;;;;;;5096972;28;20111;-67
2021/06/02 12:04:41;;;;;;;5.45;2.55;;;;;;;;;;5099967;28;20035;-67
2021/06/02 12:07:26;;;;;;;3.15;2.10;;;;;;;;;;5094821;28;20161;-67
2021/06/02 12:09:52;;;;;;;7.80;3.30;;;;;;;;;;5099499;28;20047;-67
2021/06/02 12:12:17;;;;;;;5.78;2.70;;;;;;;;;;5101056;28;20547;-68
2021/06/02 12:14:50;;;;;;;4.70;2.50;;;;;;;;;;5098413;28;20074;-67
2021/06/02 12:17:15;;;;;;;5.28;2.90;;;;;;;;;;5104671;28;20016;-67
2021/06/02 12:19:40;;;;;;;6.53;2.95;;;;;;;;;;5099141;28;20072;-68
2021/06/02 12:22:10;;;;;;;5.72;2.83;;;;;;;;;;5105136;28;20027;-67
2021/06/02 12:24:35;;;;;;;6.05;3.00;;;;;;;;;;5110341;28;20078;-66
2021/06/02 12:27:01;;;;;;;10.27;3.20;;;;;;;;;;5103220;28;20052;-67
2021/06/02 12:29:30;;;;;;;8.85;3.25;;;;;;;;;;5113779;28;20111;-67
2021/06/02 12:31:58;;;;;;;4.30;2.75;;;;;;;;;;5107243;28;20012;-67
2021/06/02 12:34:33;;;;;;;21.23;7.07;;;;;;;;;;5093746;28;20047;-67
2021/06/02 12:37:00;;;;;;;10.27;3.40;;;;;;;;;;5093516;28;20059;-67
2021/06/02 12:39:29;;;;;;;8.57;3.00;;;;;;;;;;5093929;28;20046;-67
2021/06/02 12:41:55;;;;;;;6.45;3.03;;;;;;;;;;5093615;28;20032;-67
2021/06/02 12:44:22;;;;;;;8.82;3.80;;;;;;;;;;5094051;28;20032;-68
2021/06/02 12:46:57;;;;;;;11.07;5.20;;;;;;;;;;5093841;28;20086;-67
2021/06/02 12:49:22;;;;;;;6.07;3.20;;;;;;;;;;5094199;28;20036;-68
2021/06/02 12:51:55;;;;;;;7.82;3.05;;;;;;;;;;5093270;28;20456;-67
2021/06/02 12:54:21;;;;;;;6.82;3.58;;;;;;;;;;5093459;28;20059;-67
2021/06/02 12:56:46;;;;;;;6.80;3.50;;;;;;;;;;5093284;28;20473;-67
2021/06/02 12:59:11;;;;;;;12.73;5.30;;;;;;;;;;5094173;28;20052;-68
2021/06/02 13:01:37;;;;;;;51.50;18.33;;;;;;;;;;5093753;28;20047;-67
2021/06/02 13:04:02;;;;;;;17.80;5.13;;;;;;;;;;5092740;28;20059;-67
2021/06/02 13:06:32;;;;;;;18.33;4.47;;;;;;;;;;5107141;28;20070;-68
2021/06/02 13:08:58;;;;;;;8.90;3.35;;;;;;;;;;5114001;28;20034;-67
2021/06/02 13:11:29;;;;;;;5.47;3.47;;;;;;;;;;5113493;28;20648;-67
2021/06/02 13:13:55;;;;;;;7.18;3.40;;;;;;;;;;5113555;28;20027;-66
2021/06/02 13:16:20;;;;;;;12.70;5.72;;;;;;;;;;5113178;28;20035;-67
2021/06/02 13:18:56;;;;;;;8.80;3.15;;;;;;;;;;5113577;28;20026;-67
2021/06/02 13:21:28;;;;;;;10.35;3.92;;;;;;;;;;5113095;28;20027;-65
2021/06/02 13:23:54;;;;;;;10.40;3.72;;;;;;;;;;5112501;28;20047;-66
2021/06/02 13:26:19;;;;;;;9.13;3.58;;;;;;;;;;5113318;28;20031;-67
2021/06/02 13:28:52;;;;;;;9.18;3.85;;;;;;;;;;5113101;28;20019;-67
2021/06/02 13:31:18;;;;;;;6.38;3.45;;;;;;;;;;5112364;28;20589;-67
2021/06/02 13:33:45;;;;;;;10.07;3.90;;;;;;;;;;5110947;28;20102;-68
2021/06/02 13:36:11;;;;;;;9.30;3.50;;;;;;;;;;5113273;28;20019;-67
2021/06/02 13:38:37;;;;;;;7.32;3.85;;;;;;;;;;5112669;28;20167;-67
2021/06/02 13:41:02;;;;;;;7.75;3.83;;;;;;;;;;5112232;28;20023;-66
2021/06/02 13:43:38;;;;;;;6.03;3.70;;;;;;;;;;5113484;28;20028;-67
2021/06/02 13:46:09;;;;;;;7.13;4.15;;;;;;;;;;5112555;28;20640;-65
2021/06/02 13:48:36;;;;;;;7.15;4.10;;;;;;;;;;5111816;28;20042;-65
2021/06/02 13:51:19;;;;;;;7.10;4.00;;;;;;;;;;5113563;28;20035;-67
2021/06/02 13:54:01;;;;;;;9.63;4.30;;;;;;;;;;5111149;28;20112;-67
2021/06/02 13:56:27;;;;;;;8.60;4.30;;;;;;;;;;5098254;28;20058;-66
2021/06/02 13:59:05;;;;;;;8.77;4.97;;;;;;;;;;5108077;28;20027;-67
2021/06/02 14:01:30;;;;;;;9.90;5.25;;;;;;;;;;5107307;28;20046;-67
2021/06/02 14:03:56;;;;;;;8.80;4.55;;;;;;;;;;5101269;28;20039;-67
2021/06/02 14:06:21;;;;;;;11.32;4.78;;;;;;;;;;5108095;28;20474;-67
2021/06/02 14:08:46;;;;;;;8.95;5.13;;;;;;;;;;5103112;28;20020;-67
2021/06/02 14:11:19;;;;;;;12.07;5.05;;;;;;;;;;5100761;28;20545;-67
2021/06/02 14:13:44;;;;;;;8.15;5.45;;;;;;;;;;5100274;28;20043;-67
2021/06/02 14:16:09;;;;;;;10.25;5.47;;;;;;;;;;5099589;28;20024;-67
2021/06/02 14:18:34;;;;;;;10.00;5.65;;;;;;;;;;5093069;28;20430;-67
2021/06/02 14:21:00;;;;;;;10.93;6.47;;;;;;;;;;5094532;28;20042;-67
2021/06/02 14:23:26;;;;;;;13.43;6.88;;;;;;;;;;5097943;28;20115;-67
2021/06/02 14:25:51;;;;;;;12.27;6.32;;;;;;;;;;5101632;28;20023;-66
2021/06/02 14:28:16;;;;;;;7.97;5.95;;;;;;;;;;5092303;28;20046;-67
2021/06/02 14:30:42;;;;;;;9.68;5.68;;;;;;;;;;5103408;28;20024;-67
2021/06/02 14:33:07;;;;;;;11.38;5.80;;;;;;;;;;5093769;28;20059;-67
2021/06/02 14:35:33;;;;;;;7.75;5.68;;;;;;;;;;5077441;28;20755;-67
2021/06/02 14:37:58;;;;;;;8.65;6.28;;;;;;;;;;5101809;28;20024;-65
2021/06/02 14:40:23;;;;;;;13.02;6.07;;;;;;;;;;5100394;28;20031;-67
2021/06/02 14:42:48;;;;;;;10.20;6.10;;;;;;;;;;5092512;28;20062;-67
2021/06/02 14:45:14;;;;;;;9.70;6.50;;;;;;;;;;5097925;28;20079;-66
2021/06/02 14:47:39;;;;;;;9.60;6.32;;;;;;;;;;5098672;28;20032;-66
2021/06/02 14:50:06;;;;;;;8.38;5.22;;;;;;;;;;5091593;28;20131;-65
2021/06/02 14:52:32;;;;;;;9.98;5.85;;;;;;;;;;5103270;28;20028;-66
2021/06/02 14:54:58;;;;;;;12.38;6.07;;;;;;;;;;5099178;28;20023;-66